aviador You're here:

ZSHC Decoded Metar

HANGZHOU in CHINA
Report Time2017-04-29 17:30:00
UTC Time2017-04-29 17:46:28
Flight Rules vfr VFR
Wind200° at 2 kt
W.Decomp.*RWY 25: 1.4 kt HW 1.4 kt LCW
W.Rank200° ranks 29
Current wind is below 200° avg. (4.4)
Visibility9999 m
Phenomena:N/A
Clouds:N/A
Expected CloudBase > 3,200 ft AGL from Temp-Dew spread
CeilingNone
Temp17°C (ISA +2)
Dew Point09°C (59% RH)
AAT16.0°C
QNH1011 hPa
Density Alt633 ft
Elevation141 ft
Report Wrong Elevation
Raw Report
ZSHC 291730Z 20001MPS CAVOK 17/09 Q1011 NOSIG=

Extra information for ZSHC:More info

Metar Taf Metar & Taf Last 4 Metars F.Rules Stats Wind Profile Meteogram Temp Stats Airport Information Weather charts Add Link Nearby VenuesMetar ALERT Operation Metar Decoded Social comments